Time;durP1;ratioP1;P1;durP2;ratioP2;P2;SDS_P1;SDS_P2;PMS_P1;PMS_P2;Temp;Humidity;BMP_temperature;BMP_pressure;BME280_temperature;BME280_humidity;BME280_pressure;Samples;Min_cycle;Max_cycle;Signal;HPM_P1;HPM_P2
2022/07/05 00:00:48;;;;;;;7.60;3.47;;;;;;;;;;5072433;28;20472;-76
2022/07/05 00:03:15;;;;;;;7.10;3.77;;;;;;;;;;5083411;28;20452;-75
2022/07/05 00:05:42;;;;;;;3.53;3.23;;;;;;;;;;5083237;28;20850;-76
2022/07/05 00:08:09;;;;;;;3.53;3.30;;;;;;;;;;5075353;28;20449;-75
2022/07/05 00:10:38;;;;;;;4.47;3.80;;;;;;;;;;5071389;28;20441;-75
2022/07/05 00:13:06;;;;;;;3.73;3.43;;;;;;;;;;5070776;28;20893;-75
2022/07/05 00:15:33;;;;;;;3.77;3.30;;;;;;;;;;5071052;28;20471;-76
2022/07/05 00:18:00;;;;;;;3.50;3.30;;;;;;;;;;5070938;28;20445;-76
2022/07/05 00:20:27;;;;;;;3.97;3.30;;;;;;;;;;5074420;28;20476;-76
2022/07/05 00:22:54;;;;;;;3.50;3.20;;;;;;;;;;5074759;28;20456;-77
2022/07/05 00:25:21;;;;;;;5.27;3.50;;;;;;;;;;5075058;28;20436;-75
2022/07/05 00:27:50;;;;;;;4.13;3.83;;;;;;;;;;5077195;28;20445;-76
2022/07/05 00:30:17;;;;;;;3.47;3.20;;;;;;;;;;5071595;28;20437;-75
2022/07/05 00:32:44;;;;;;;6.13;3.47;;;;;;;;;;5071662;28;20962;-76
2022/07/05 00:35:11;;;;;;;4.73;3.93;;;;;;;;;;5074551;28;20498;-76
2022/07/05 00:37:38;;;;;;;3.40;3.20;;;;;;;;;;5074591;28;20440;-75
2022/07/05 00:40:07;;;;;;;4.30;3.90;;;;;;;;;;5074279;28;20440;-75
2022/07/05 00:42:34;;;;;;;3.80;3.50;;;;;;;;;;5074470;28;20928;-76
2022/07/05 00:45:04;;;;;;;4.10;3.80;;;;;;;;;;5074405;28;20559;-76
2022/07/05 00:47:31;;;;;;;4.10;3.60;;;;;;;;;;5074604;28;20444;-76
2022/07/05 00:49:58;;;;;;;4.00;3.60;;;;;;;;;;5074255;28;20444;-76
2022/07/05 00:52:25;;;;;;;5.50;3.40;;;;;;;;;;5074045;28;20457;-77
2022/07/05 00:54:52;;;;;;;4.20;3.80;;;;;;;;;;5073747;28;20874;-76
2022/07/05 00:57:20;;;;;;;3.93;3.60;;;;;;;;;;5074193;28;20444;-76
2022/07/05 00:59:47;;;;;;;3.77;3.50;;;;;;;;;;5073919;28;20470;-76
2022/07/05 01:02:16;;;;;;;3.73;3.43;;;;;;;;;;5073790;28;20514;-76
2022/07/05 01:04:43;;;;;;;4.00;3.70;;;;;;;;;;5074158;28;20445;-76
2022/07/05 01:07:10;;;;;;;4.10;3.80;;;;;;;;;;5074152;28;20441;-76
2022/07/05 01:09:37;;;;;;;4.33;4.03;;;;;;;;;;5073886;28;20464;-75
2022/07/05 01:12:04;;;;;;;7.00;3.77;;;;;;;;;;5073444;28;20461;-76
2022/07/05 01:14:32;;;;;;;3.63;3.43;;;;;;;;;;5073235;28;20444;-77
2022/07/05 01:16:59;;;;;;;3.87;3.67;;;;;;;;;;5073881;28;20501;-76
2022/07/05 01:19:28;;;;;;;3.90;3.70;;;;;;;;;;5073134;28;20455;-76
2022/07/05 01:21:55;;;;;;;3.93;3.63;;;;;;;;;;5073166;28;20530;-75
2022/07/05 01:24:24;;;;;;;4.10;3.60;;;;;;;;;;5073291;28;20448;-76
2022/07/05 01:26:51;;;;;;;4.03;3.63;;;;;;;;;;5073519;28;20440;-76
2022/07/05 01:29:19;;;;;;;4.03;3.60;;;;;;;;;;5058456;28;20545;-76
2022/07/05 01:31:46;;;;;;;4.20;3.80;;;;;;;;;;5067367;28;20539;-75
2022/07/05 01:34:13;;;;;;;3.73;3.53;;;;;;;;;;5073129;28;20466;-76
2022/07/05 01:36:40;;;;;;;4.20;3.50;;;;;;;;;;5073112;28;20928;-75
2022/07/05 01:39:08;;;;;;;5.30;3.40;;;;;;;;;;5073301;28;20432;-75
2022/07/05 01:41:36;;;;;;;3.57;3.27;;;;;;;;;;5073164;28;20484;-75
2022/07/05 01:44:04;;;;;;;3.57;3.37;;;;;;;;;;5072905;28;20444;-75
2022/07/05 01:46:32;;;;;;;3.63;3.33;;;;;;;;;;5073081;28;20448;-76
2022/07/05 01:49:02;;;;;;;3.73;3.10;;;;;;;;;;5073135;28;20440;-75
2022/07/05 01:51:31;;;;;;;3.80;3.60;;;;;;;;;;5072598;28;20992;-76
2022/07/05 01:53:58;;;;;;;4.07;3.60;;;;;;;;;;5072797;28;20464;-77
2022/07/05 01:56:25;;;;;;;3.70;3.40;;;;;;;;;;5072712;28;20490;-76
2022/07/05 01:58:54;;;;;;;3.70;3.40;;;;;;;;;;5073156;28;20436;-76
2022/07/05 02:01:33;;;;;;;3.50;3.30;;;;;;;;;;5072873;28;20910;-76
2022/07/05 02:04:00;;;;;;;3.60;3.40;;;;;;;;;;5073015;28;20455;-76
2022/07/05 02:06:27;;;;;;;3.83;3.13;;;;;;;;;;5072738;28;20441;-76
2022/07/05 02:08:54;;;;;;;3.77;3.47;;;;;;;;;;5072490;28;20440;-76
2022/07/05 02:11:21;;;;;;;3.53;3.23;;;;;;;;;;5072692;28;20453;-76
2022/07/05 02:13:48;;;;;;;3.73;3.43;;;;;;;;;;5072351;28;20441;-76
2022/07/05 02:16:17;;;;;;;6.20;3.20;;;;;;;;;;5072765;28;20437;-79
2022/07/05 02:18:44;;;;;;;5.30;3.23;;;;;;;;;;5072224;28;20814;-77
2022/07/05 02:21:11;;;;;;;3.30;3.00;;;;;;;;;;5072083;28;20480;-76
2022/07/05 02:23:38;;;;;;;3.40;3.23;;;;;;;;;;5072117;28;20452;-75
2022/07/05 02:26:05;;;;;;;3.53;3.23;;;;;;;;;;5072242;28;20543;-77
2022/07/05 02:28:32;;;;;;;5.40;3.50;;;;;;;;;;5072212;28;20943;-75
2022/07/05 02:30:59;;;;;;;3.90;3.60;;;;;;;;;;5072150;28;20436;-76
2022/07/05 02:33:27;;;;;;;4.07;3.17;;;;;;;;;;5071768;28;20940;-76
2022/07/05 02:35:54;;;;;;;3.50;3.30;;;;;;;;;;5071962;28;20498;-75
2022/07/05 02:38:21;;;;;;;3.40;3.10;;;;;;;;;;5072148;28;20854;-76
2022/07/05 02:40:48;;;;;;;3.50;3.30;;;;;;;;;;5071628;28;20497;-75
2022/07/05 02:43:15;;;;;;;3.80;3.47;;;;;;;;;;5071279;28;20464;-75
2022/07/05 02:45:42;;;;;;;3.37;3.17;;;;;;;;;;5071939;28;20437;-74
2022/07/05 02:48:09;;;;;;;3.90;3.70;;;;;;;;;;5072185;28;20498;-75
2022/07/05 02:50:37;;;;;;;4.00;3.70;;;;;;;;;;5071685;28;20441;-75
2022/07/05 02:53:04;;;;;;;4.63;4.07;;;;;;;;;;5071644;28;20465;-76
2022/07/05 02:55:31;;;;;;;3.77;3.57;;;;;;;;;;5071987;28;20498;-76
2022/07/05 02:57:58;;;;;;;3.47;3.17;;;;;;;;;;5071928;28;20440;-76
2022/07/05 03:00:25;;;;;;;3.43;3.23;;;;;;;;;;5072072;28;20810;-76
2022/07/05 03:02:52;;;;;;;3.90;3.70;;;;;;;;;;5071530;28;20472;-75
2022/07/05 03:05:19;;;;;;;3.47;3.17;;;;;;;;;;5071717;28;21124;-75
2022/07/05 03:07:48;;;;;;;4.10;3.70;;;;;;;;;;5072503;28;20440;-77
2022/07/05 03:10:15;;;;;;;3.50;3.30;;;;;;;;;;5068677;28;20442;-75
2022/07/05 03:12:42;;;;;;;3.80;3.50;;;;;;;;;;5067319;28;20453;-77
2022/07/05 03:15:09;;;;;;;4.10;3.80;;;;;;;;;;5053071;28;20450;-74
2022/07/05 03:17:36;;;;;;;4.50;3.77;;;;;;;;;;5051796;28;20445;-76
2022/07/05 03:20:04;;;;;;;3.60;3.40;;;;;;;;;;5051336;28;20458;-75
2022/07/05 03:22:31;;;;;;;4.40;3.90;;;;;;;;;;5051476;28;20489;-76
2022/07/05 03:24:59;;;;;;;5.13;3.60;;;;;;;;;;5051920;28;20449;-75
2022/07/05 03:27:26;;;;;;;3.70;3.40;;;;;;;;;;5051504;28;20782;-75
2022/07/05 03:29:53;;;;;;;3.67;3.47;;;;;;;;;;5048098;28;20446;-77
2022/07/05 03:32:20;;;;;;;3.93;3.53;;;;;;;;;;5060647;28;20466;-75
2022/07/05 03:34:47;;;;;;;3.30;3.10;;;;;;;;;;5071268;28;20498;-75
2022/07/05 03:37:14;;;;;;;5.40;3.27;;;;;;;;;;5071465;28;20444;-74
2022/07/05 03:39:41;;;;;;;3.57;3.37;;;;;;;;;;5071243;28;20846;-75
2022/07/05 03:42:09;;;;;;;3.40;2.97;;;;;;;;;;5071246;28;20480;-76
2022/07/05 03:44:36;;;;;;;3.20;3.00;;;;;;;;;;5071162;28;20448;-74
2022/07/05 03:47:03;;;;;;;7.03;3.53;;;;;;;;;;5071314;28;20440;-75
2022/07/05 03:49:30;;;;;;;4.20;3.90;;;;;;;;;;5071232;28;20440;-74
2022/07/05 03:51:57;;;;;;;3.83;3.53;;;;;;;;;;5071494;28;20506;-77
2022/07/05 03:54:24;;;;;;;3.97;3.67;;;;;;;;;;5074676;28;20441;-76
2022/07/05 03:56:51;;;;;;;3.63;3.33;;;;;;;;;;5075206;28;20444;-76
2022/07/05 03:59:20;;;;;;;3.53;3.33;;;;;;;;;;5074681;28;20440;-76
2022/07/05 04:01:47;;;;;;;3.73;3.33;;;;;;;;;;5074710;28;20988;-76
2022/07/05 04:04:14;;;;;;;3.37;3.07;;;;;;;;;;5074786;28;20490;-77
2022/07/05 04:06:41;;;;;;;3.60;3.30;;;;;;;;;;5075126;28;20860;-75
2022/07/05 04:09:08;;;;;;;3.60;3.20;;;;;;;;;;5074805;28;20530;-75
2022/07/05 04:11:35;;;;;;;4.60;3.40;;;;;;;;;;5075356;28;20529;-76
2022/07/05 04:14:02;;;;;;;3.73;3.47;;;;;;;;;;5075072;28;20486;-76
2022/07/05 04:16:30;;;;;;;3.90;3.60;;;;;;;;;;5074940;28;20433;-75
2022/07/05 04:18:57;;;;;;;3.70;3.40;;;;;;;;;;5074892;28;20506;-75
2022/07/05 04:21:24;;;;;;;4.20;3.80;;;;;;;;;;5058878;28;20553;-75
2022/07/05 04:23:52;;;;;;;3.50;3.30;;;;;;;;;;5069157;28;20440;-76
2022/07/05 04:26:19;;;;;;;4.13;3.60;;;;;;;;;;5074844;28;20441;-77
2022/07/05 04:28:46;;;;;;;3.83;3.60;;;;;;;;;;5074875;28;20505;-75
2022/07/05 04:31:13;;;;;;;3.23;3.03;;;;;;;;;;5074774;28;20548;-75
2022/07/05 04:33:41;;;;;;;4.00;3.70;;;;;;;;;;5074387;28;20498;-75
2022/07/05 04:36:08;;;;;;;4.00;3.20;;;;;;;;;;5074557;28;20862;-76
2022/07/05 04:38:35;;;;;;;4.03;3.63;;;;;;;;;;5074617;28;20514;-76
2022/07/05 04:41:02;;;;;;;4.23;3.60;;;;;;;;;;5074485;28;20498;-75
2022/07/05 04:43:29;;;;;;;3.33;3.03;;;;;;;;;;5074682;28;20476;-77
2022/07/05 04:45:56;;;;;;;3.53;3.33;;;;;;;;;;5074472;28;20436;-75
2022/07/05 04:48:23;;;;;;;4.10;3.70;;;;;;;;;;5074441;28;20854;-75
2022/07/05 04:50:51;;;;;;;5.10;3.23;;;;;;;;;;5074526;28;20444;-76
2022/07/05 04:53:19;;;;;;;4.03;3.73;;;;;;;;;;5074197;28;20927;-75
2022/07/05 04:55:46;;;;;;;4.23;3.77;;;;;;;;;;5074697;28;20896;-76
2022/07/05 04:58:13;;;;;;;3.70;3.30;;;;;;;;;;5074211;28;20437;-75
2022/07/05 05:00:40;;;;;;;4.60;4.20;;;;;;;;;;5074175;28;20441;-76
2022/07/05 05:03:07;;;;;;;6.70;3.50;;;;;;;;;;5073875;28;20567;-76
2022/07/05 05:05:34;;;;;;;4.00;3.60;;;;;;;;;;5073349;28;20445;-76
2022/07/05 05:08:02;;;;;;;4.03;3.30;;;;;;;;;;5074081;28;20841;-76
2022/07/05 05:10:29;;;;;;;3.60;3.40;;;;;;;;;;5051970;28;20437;-76
2022/07/05 05:12:56;;;;;;;14.63;13.13;;;;;;;;;;5067617;28;20470;-77
2022/07/05 05:15:23;;;;;;;6.20;4.43;;;;;;;;;;5059571;28;20495;-75
2022/07/05 05:17:50;;;;;;;7.20;4.07;;;;;;;;;;5077092;28;20850;-75
2022/07/05 05:20:18;;;;;;;3.63;3.33;;;;;;;;;;5078764;28;20522;-76
2022/07/05 05:22:46;;;;;;;4.83;2.90;;;;;;;;;;5079196;28;20490;-76
2022/07/05 05:25:14;;;;;;;2.93;2.47;;;;;;;;;;5080837;28;20449;-75
2022/07/05 05:27:42;;;;;;;2.77;2.37;;;;;;;;;;5079802;28;20468;-75
2022/07/05 05:30:10;;;;;;;4.97;1.80;;;;;;;;;;5074855;28;20445;-76
2022/07/05 05:32:37;;;;;;;2.10;2.00;;;;;;;;;;5073353;28;20460;-76
2022/07/05 05:35:04;;;;;;;3.13;2.43;;;;;;;;;;5074454;28;20440;-75
2022/07/05 05:37:31;;;;;;;2.23;2.03;;;;;;;;;;5074782;28;20448;-75
2022/07/05 05:39:58;;;;;;;2.60;2.07;;;;;;;;;;5074497;28;20440;-76
2022/07/05 05:42:27;;;;;;;2.17;2.03;;;;;;;;;;5073649;28;20533;-76
2022/07/05 05:44:54;;;;;;;2.77;2.50;;;;;;;;;;5073416;28;20436;-76
2022/07/05 05:47:21;;;;;;;1.93;1.80;;;;;;;;;;5073528;28;20457;-77
2022/07/05 05:49:48;;;;;;;1.90;1.80;;;;;;;;;;5072908;28;20506;-76
2022/07/05 05:52:15;;;;;;;2.13;2.03;;;;;;;;;;5073724;28;20468;-74
2022/07/05 05:54:42;;;;;;;2.37;2.07;;;;;;;;;;5072802;28;20973;-75
2022/07/05 05:57:09;;;;;;;2.00;1.90;;;;;;;;;;5072848;28;20441;-75
2022/07/05 05:59:37;;;;;;;1.83;1.73;;;;;;;;;;5072696;28;20445;-75
2022/07/05 06:02:04;;;;;;;3.37;2.10;;;;;;;;;;5072471;28;20555;-77
2022/07/05 06:04:31;;;;;;;2.93;2.63;;;;;;;;;;5072628;28;20502;-76
2022/07/05 06:06:58;;;;;;;2.47;2.37;;;;;;;;;;5073230;28;20498;-75
2022/07/05 06:09:25;;;;;;;2.17;1.97;;;;;;;;;;5073150;28;20514;-76
2022/07/05 06:11:52;;;;;;;2.27;2.07;;;;;;;;;;5072906;28;20471;-77
2022/07/05 06:14:19;;;;;;;2.50;2.30;;;;;;;;;;5072725;28;20456;-76
2022/07/05 06:16:48;;;;;;;4.33;2.17;;;;;;;;;;5072908;28;20856;-76
2022/07/05 06:19:15;;;;;;;2.70;2.50;;;;;;;;;;5072631;28;20456;-75
2022/07/05 06:21:42;;;;;;;3.23;2.00;;;;;;;;;;5072869;28;20491;-76
2022/07/05 06:24:09;;;;;;;1.90;1.80;;;;;;;;;;5072347;28;20537;-76
2022/07/05 06:26:36;;;;;;;2.10;1.80;;;;;;;;;;5072296;28;20445;-76
2022/07/05 06:29:03;;;;;;;2.07;1.97;;;;;;;;;;5072324;28;20475;-77
2022/07/05 06:31:30;;;;;;;2.40;2.10;;;;;;;;;;5057173;28;20461;-76
2022/07/05 06:33:58;;;;;;;3.30;2.03;;;;;;;;;;5067512;28;20433;-77
2022/07/05 06:36:25;;;;;;;2.50;1.77;;;;;;;;;;5064019;28;20441;-75
2022/07/05 06:38:52;;;;;;;2.07;1.83;;;;;;;;;;5072098;28;20474;-77
2022/07/05 06:41:19;;;;;;;2.30;1.90;;;;;;;;;;5072400;28;20460;-75
2022/07/05 06:43:46;;;;;;;3.20;1.87;;;;;;;;;;5071583;28;20480;-76
2022/07/05 06:46:13;;;;;;;3.00;2.30;;;;;;;;;;5069766;28;20480;-75
2022/07/05 06:48:40;;;;;;;5.27;2.43;;;;;;;;;;5055574;28;20861;-75
2022/07/05 06:51:09;;;;;;;2.03;1.90;;;;;;;;;;5062298;28;20440;-77
2022/07/05 06:53:36;;;;;;;1.90;1.80;;;;;;;;;;5071688;28;20445;-75
2022/07/05 06:56:03;;;;;;;2.30;2.03;;;;;;;;;;5072354;28;20440;-74
2022/07/05 06:58:30;;;;;;;2.90;1.60;;;;;;;;;;5072194;28;20452;-76
2022/07/05 07:00:57;;;;;;;5.47;1.60;;;;;;;;;;5074439;28;20547;-76
2022/07/05 07:03:24;;;;;;;2.10;1.83;;;;;;;;;;5084321;28;20481;-75
2022/07/05 07:05:51;;;;;;;2.40;1.60;;;;;;;;;;5083322;28;20791;-75
2022/07/05 07:11:04;;;;;;;5.50;2.20;;;;;;;;;;5051821;28;20417;-75
2022/07/05 07:13:31;;;;;;;2.80;1.80;;;;;;;;;;5051667;28;20438;-76
2022/07/05 07:15:58;;;;;;;6.23;2.00;;;;;;;;;;5051581;28;20449;-76
2022/07/05 07:18:25;;;;;;;4.27;2.53;;;;;;;;;;5051214;28;20449;-76
2022/07/05 07:20:52;;;;;;;4.33;2.87;;;;;;;;;;5051239;28;20913;-75
2022/07/05 07:23:20;;;;;;;2.50;2.30;;;;;;;;;;5051280;28;20527;-76
2022/07/05 07:25:48;;;;;;;4.17;2.53;;;;;;;;;;5051482;28;20995;-77
2022/07/05 07:28:15;;;;;;;5.83;1.80;;;;;;;;;;5051238;28;20450;-75
2022/07/05 07:30:42;;;;;;;2.60;1.97;;;;;;;;;;5051668;28;20448;-75
2022/07/05 07:33:09;;;;;;;2.83;2.07;;;;;;;;;;5051102;28;20548;-76
2022/07/05 07:35:36;;;;;;;1.70;1.60;;;;;;;;;;5051842;28;20441;-76
2022/07/05 07:38:03;;;;;;;2.20;1.70;;;;;;;;;;5051943;28;20437;-76
2022/07/05 07:40:31;;;;;;;1.70;1.60;;;;;;;;;;5051675;28;20445;-76
2022/07/05 07:42:58;;;;;;;1.80;1.70;;;;;;;;;;5051123;28;20473;-75
2022/07/05 07:45:26;;;;;;;2.03;1.90;;;;;;;;;;5051216;28;20902;-76
2022/07/05 07:47:53;;;;;;;2.60;1.40;;;;;;;;;;5053631;28;20449;-76
2022/07/05 07:50:20;;;;;;;2.77;1.67;;;;;;;;;;5052939;28;20946;-76
2022/07/05 07:52:47;;;;;;;2.40;1.63;;;;;;;;;;5050217;28;20480;-76
2022/07/05 07:55:15;;;;;;;2.37;1.80;;;;;;;;;;5062624;28;20444;-76
2022/07/05 07:57:43;;;;;;;2.00;1.63;;;;;;;;;;5072743;28;20483;-75
2022/07/05 08:00:10;;;;;;;2.10;2.00;;;;;;;;;;5073298;28;20441;-76
2022/07/05 08:02:37;;;;;;;1.50;1.50;;;;;;;;;;5072082;28;20507;-75
2022/07/05 08:05:05;;;;;;;3.10;1.90;;;;;;;;;;5072413;28;20868;-75
2022/07/05 08:07:32;;;;;;;1.83;1.37;;;;;;;;;;5073067;28;20479;-74
2022/07/05 08:09:59;;;;;;;1.57;1.47;;;;;;;;;;5057216;28;20468;-76
2022/07/05 08:12:26;;;;;;;3.40;1.60;;;;;;;;;;5051651;28;20457;-75
2022/07/05 08:14:55;;;;;;;2.33;1.67;;;;;;;;;;5051567;28;20437;-76
2022/07/05 08:17:22;;;;;;;1.93;1.80;;;;;;;;;;5051524;28;20446;-76
2022/07/05 08:22:33;;;;;;;1.80;1.60;;;;;;;;;;5057991;28;20433;-77
2022/07/05 08:25:00;;;;;;;1.70;1.60;;;;;;;;;;5062914;28;20902;-75
2022/07/05 08:27:27;;;;;;;1.97;1.80;;;;;;;;;;5061682;28;20507;-76
2022/07/05 08:29:56;;;;;;;1.70;1.60;;;;;;;;;;5061447;28;20445;-76
2022/07/05 08:32:23;;;;;;;2.20;2.00;;;;;;;;;;5060433;28;20457;-76
2022/07/05 08:34:50;;;;;;;1.90;1.60;;;;;;;;;;5050850;28;20450;-75
2022/07/05 08:37:17;;;;;;;3.10;1.80;;;;;;;;;;5050696;28;20442;-76
2022/07/05 08:39:44;;;;;;;2.27;1.67;;;;;;;;;;5051315;28;20860;-75
2022/07/05 08:42:11;;;;;;;2.60;1.47;;;;;;;;;;5054604;28;20457;-75
2022/07/05 08:44:39;;;;;;;2.43;1.60;;;;;;;;;;5054045;28;20488;-74
2022/07/05 08:47:10;;;;;;;2.27;2.07;;;;;;;;;;5069186;28;20872;-76
2022/07/05 08:49:40;;;;;;;3.07;1.50;;;;;;;;;;5074548;28;20444;-76
2022/07/05 08:52:08;;;;;;;2.70;1.77;;;;;;;;;;5064700;28;20465;-79
2022/07/05 08:54:37;;;;;;;1.87;1.70;;;;;;;;;;5065802;28;20441;-76
2022/07/05 08:57:05;;;;;;;3.43;1.63;;;;;;;;;;5064832;28;20970;-77
2022/07/05 08:59:32;;;;;;;3.70;1.97;;;;;;;;;;5061591;28;20441;-75
2022/07/05 09:02:00;;;;;;;1.40;1.30;;;;;;;;;;5073862;28;20464;-76
2022/07/05 09:04:30;;;;;;;1.80;1.70;;;;;;;;;;5074043;28;20472;-77
2022/07/05 09:06:58;;;;;;;2.83;1.33;;;;;;;;;;5074004;28;20523;-76
2022/07/05 09:09:26;;;;;;;1.43;1.37;;;;;;;;;;5074101;28;20474;-76
2022/07/05 09:11:55;;;;;;;2.27;1.60;;;;;;;;;;5073797;28;20972;-76
2022/07/05 09:14:24;;;;;;;1.47;1.37;;;;;;;;;;5073677;28;20441;-75
2022/07/05 09:16:51;;;;;;;1.20;1.20;;;;;;;;;;5073546;28;20447;-75
2022/07/05 09:19:18;;;;;;;1.33;1.20;;;;;;;;;;5073406;28;20513;-77
2022/07/05 09:21:47;;;;;;;4.80;1.57;;;;;;;;;;5073521;28;20464;-76
2022/07/05 09:24:14;;;;;;;1.67;1.50;;;;;;;;;;5073202;28;20491;-76
2022/07/05 09:26:43;;;;;;;3.33;1.40;;;;;;;;;;5073648;28;20436;-75
2022/07/05 09:29:11;;;;;;;2.10;1.50;;;;;;;;;;5073852;28;20841;-77
2022/07/05 09:31:38;;;;;;;1.53;0.97;;;;;;;;;;5073378;28;20893;-76
2022/07/05 09:34:06;;;;;;;2.80;1.20;;;;;;;;;;5073172;28;20463;-76
2022/07/05 09:36:51;;;;;;;2.77;1.37;;;;;;;;;;5076367;28;20528;-76
2022/07/05 09:39:18;;;;;;;1.37;1.30;;;;;;;;;;5073526;28;20498;-75
2022/07/05 09:41:45;;;;;;;2.10;1.27;;;;;;;;;;5073523;28;20461;-76
2022/07/05 09:44:12;;;;;;;1.30;1.20;;;;;;;;;;5073343;28;20476;-76
2022/07/05 09:46:39;;;;;;;1.90;1.20;;;;;;;;;;5073338;28;20441;-76
2022/07/05 09:49:06;;;;;;;3.17;1.40;;;;;;;;;;5073168;28;20448;-76
2022/07/05 09:51:49;;;;;;;1.20;0.97;;;;;;;;;;5073251;28;20457;-75
2022/07/05 09:54:17;;;;;;;1.70;1.60;;;;;;;;;;5072932;28;20479;-75
2022/07/05 09:56:47;;;;;;;2.23;1.30;;;;;;;;;;5058928;28;20593;-76
2022/07/05 09:59:15;;;;;;;1.83;1.57;;;;;;;;;;5072758;28;20465;-75
2022/07/05 10:01:42;;;;;;;1.80;1.47;;;;;;;;;;5067124;28;20473;-75
2022/07/05 10:04:09;;;;;;;2.37;1.30;;;;;;;;;;5063217;28;20487;-76
2022/07/05 10:06:37;;;;;;;1.30;1.20;;;;;;;;;;5067748;28;20937;-76
2022/07/05 10:09:04;;;;;;;1.97;1.03;;;;;;;;;;5056157;28;20450;-75
2022/07/05 10:11:33;;;;;;;1.00;1.00;;;;;;;;;;5060057;28;20976;-76
2022/07/05 10:14:00;;;;;;;2.20;1.30;;;;;;;;;;5072018;28;20860;-77
2022/07/05 10:16:27;;;;;;;1.27;1.17;;;;;;;;;;5072337;28;20805;-75
2022/07/05 10:18:56;;;;;;;1.90;1.47;;;;;;;;;;5072602;28;20506;-76
2022/07/05 10:21:25;;;;;;;1.37;1.10;;;;;;;;;;5044736;28;20969;-75
2022/07/05 10:23:53;;;;;;;1.53;1.30;;;;;;;;;;5056099;28;20984;-75
2022/07/05 10:26:21;;;;;;;1.07;1.00;;;;;;;;;;5069091;28;20456;-75
2022/07/05 10:28:50;;;;;;;3.80;1.20;;;;;;;;;;5067115;28;20437;-76
2022/07/05 10:31:18;;;;;;;1.23;1.23;;;;;;;;;;5073074;28;20456;-76
2022/07/05 10:33:45;;;;;;;1.07;1.07;;;;;;;;;;5072612;28;20444;-77
2022/07/05 10:36:13;;;;;;;0.80;0.80;;;;;;;;;;5072801;28;20444;-78
2022/07/05 10:38:42;;;;;;;1.00;0.90;;;;;;;;;;5072934;28;20448;-77
2022/07/05 10:41:10;;;;;;;0.90;0.90;;;;;;;;;;5072430;28;20444;-77
2022/07/05 10:43:37;;;;;;;1.00;1.00;;;;;;;;;;5072463;28;20522;-77
2022/07/05 10:46:07;;;;;;;4.63;1.10;;;;;;;;;;5065820;28;20449;-82
2022/07/05 10:48:35;;;;;;;3.27;1.37;;;;;;;;;;5064431;28;20441;-76
2022/07/05 10:51:04;;;;;;;1.10;1.00;;;;;;;;;;5083609;28;20440;-80
2022/07/05 10:53:51;;;;;;;2.40;1.40;;;;;;;;;;5081980;28;20535;-76
2022/07/05 10:56:18;;;;;;;2.23;1.30;;;;;;;;;;5084944;28;20449;-77
2022/07/05 10:58:46;;;;;;;2.97;1.23;;;;;;;;;;5063552;28;21183;-75
2022/07/05 11:01:46;;;;;;;1.53;1.17;;;;;;;;;;5051918;28;20853;-76
2022/07/05 11:04:35;;;;;;;1.77;1.23;;;;;;;;;;5050299;28;20503;-79
2022/07/05 11:07:04;;;;;;;1.67;0.90;;;;;;;;;;5051126;28;20443;-79
2022/07/05 11:09:31;;;;;;;1.33;1.23;;;;;;;;;;5050984;28;20521;-75
2022/07/05 11:12:08;;;;;;;1.20;1.00;;;;;;;;;;5051325;28;20457;-75
2022/07/05 11:14:37;;;;;;;5.40;1.30;;;;;;;;;;5051313;28;20428;-76
2022/07/05 11:17:36;;;;;;;1.70;1.10;;;;;;;;;;5051618;28;20444;-78
2022/07/05 11:20:05;;;;;;;3.40;1.30;;;;;;;;;;5050462;28;20822;-76
2022/07/05 11:22:35;;;;;;;1.47;1.37;;;;;;;;;;5050551;28;21009;-76
2022/07/05 11:25:03;;;;;;;1.83;1.00;;;;;;;;;;5051038;28;20543;-77
2022/07/05 11:27:30;;;;;;;2.03;1.10;;;;;;;;;;5051191;28;20433;-75
2022/07/05 11:29:58;;;;;;;0.83;0.83;;;;;;;;;;5050414;28;20817;-76
2022/07/05 11:32:36;;;;;;;1.10;1.10;;;;;;;;;;5050682;28;20465;-76
2022/07/05 11:35:14;;;;;;;1.20;1.10;;;;;;;;;;5050691;28;20471;-76
2022/07/05 11:37:56;;;;;;;2.57;1.50;;;;;;;;;;5053080;28;20442;-77
2022/07/05 11:40:31;;;;;;;2.40;1.20;;;;;;;;;;5051683;28;20983;-76
2022/07/05 11:42:58;;;;;;;3.23;1.20;;;;;;;;;;5050383;28;20468;-76
2022/07/05 11:45:25;;;;;;;2.03;1.30;;;;;;;;;;5050663;28;20492;-76
2022/07/05 11:47:55;;;;;;;2.30;1.47;;;;;;;;;;5050519;28;20499;-75
2022/07/05 11:50:27;;;;;;;1.40;1.13;;;;;;;;;;5050603;28;20529;-76
2022/07/05 11:52:54;;;;;;;1.60;1.00;;;;;;;;;;5050084;28;20469;-75
2022/07/05 11:55:21;;;;;;;4.80;1.30;;;;;;;;;;5050640;28;20487;-77
2022/07/05 11:57:53;;;;;;;2.13;1.30;;;;;;;;;;5050410;28;20449;-76
2022/07/05 12:00:27;;;;;;;1.40;1.10;;;;;;;;;;5050264;28;20473;-76
2022/07/05 12:02:54;;;;;;;3.83;1.30;;;;;;;;;;5050502;28;20507;-77
2022/07/05 12:05:21;;;;;;;1.40;1.30;;;;;;;;;;5050318;28;20486;-76
2022/07/05 12:07:50;;;;;;;2.37;1.20;;;;;;;;;;5050554;28;20449;-75
2022/07/05 12:13:06;;;;;;;1.20;1.20;;;;;;;;;;5047674;28;20516;-75
2022/07/05 12:15:33;;;;;;;1.77;1.13;;;;;;;;;;5058711;28;20432;-77
2022/07/05 12:18:03;;;;;;;1.40;1.07;;;;;;;;;;5073939;28;20989;-77
2022/07/05 12:20:30;;;;;;;4.50;1.30;;;;;;;;;;5073862;28;20531;-76
2022/07/05 12:22:58;;;;;;;3.50;1.40;;;;;;;;;;5074473;28;20502;-77
2022/07/05 12:25:25;;;;;;;1.20;1.10;;;;;;;;;;5073756;28;20476;-77
2022/07/05 12:27:54;;;;;;;1.80;1.43;;;;;;;;;;5074200;28;20466;-77
2022/07/05 12:30:22;;;;;;;1.37;1.00;;;;;;;;;;5074206;28;20437;-76
2022/07/05 12:32:57;;;;;;;1.53;1.40;;;;;;;;;;5073632;28;20464;-77
2022/07/05 12:35:37;;;;;;;1.53;1.43;;;;;;;;;;5074193;28;20417;-76
2022/07/05 12:38:05;;;;;;;1.67;1.57;;;;;;;;;;5073645;28;20957;-76
2022/07/05 12:40:32;;;;;;;5.50;1.33;;;;;;;;;;5073707;28;20959;-77
2022/07/05 12:43:07;;;;;;;1.37;1.10;;;;;;;;;;5073718;28;20468;-76
2022/07/05 12:45:35;;;;;;;1.87;1.37;;;;;;;;;;5073271;28;20471;-75
2022/07/05 12:48:04;;;;;;;7.97;1.50;;;;;;;;;;5073737;28;20436;-77
2022/07/05 12:50:32;;;;;;;1.70;1.60;;;;;;;;;;5073787;28;20452;-75
2022/07/05 12:58:01;;;;;;;2.43;1.30;;;;;;;;;;5073221;28;20885;-76
2022/07/05 12:58:45;;;;;;;1.43;1.00;;;;;;;;;;5073401;28;20997;-76
2022/07/05 13:01:24;;;;;;;1.47;1.10;;;;;;;;;;5073971;28;20498;-78
2022/07/05 13:03:59;;;;;;;1.30;1.30;;;;;;;;;;5073672;28;20429;-78
2022/07/05 13:06:40;;;;;;;5.27;1.03;;;;;;;;;;5073471;28;20448;-77
2022/07/05 13:09:07;;;;;;;1.93;1.10;;;;;;;;;;5064447;28;20442;-77
2022/07/05 13:11:34;;;;;;;1.70;1.10;;;;;;;;;;5053812;28;20523;-77
2022/07/05 13:14:01;;;;;;;1.70;1.37;;;;;;;;;;5053778;28;20445;-77
2022/07/05 13:16:29;;;;;;;1.80;1.13;;;;;;;;;;5053153;28;20495;-75
2022/07/05 13:18:56;;;;;;;2.13;1.53;;;;;;;;;;5053148;28;20506;-76
2022/07/05 13:21:23;;;;;;;1.13;1.03;;;;;;;;;;5052872;28;20518;-75
2022/07/05 13:23:50;;;;;;;1.63;1.47;;;;;;;;;;5052795;28;20438;-76
2022/07/05 13:26:18;;;;;;;2.50;1.23;;;;;;;;;;5052106;28;20883;-76
2022/07/05 13:28:45;;;;;;;7.70;1.30;;;;;;;;;;5053317;28;20452;-76
2022/07/05 13:31:13;;;;;;;1.63;1.43;;;;;;;;;;5053640;28;21042;-76
2022/07/05 13:33:41;;;;;;;1.70;1.30;;;;;;;;;;5061509;28;20449;-77
2022/07/05 13:36:08;;;;;;;1.87;1.50;;;;;;;;;;5072635;28;20437;-77
2022/07/05 13:38:35;;;;;;;3.00;1.40;;;;;;;;;;5072834;28;20498;-75
2022/07/05 13:41:02;;;;;;;1.87;1.10;;;;;;;;;;5072066;28;20857;-77
2022/07/05 13:43:29;;;;;;;1.33;1.23;;;;;;;;;;5056853;28;20506;-78
2022/07/05 13:45:56;;;;;;;1.43;1.20;;;;;;;;;;5068035;28;20881;-78
2022/07/05 13:48:23;;;;;;;2.40;1.20;;;;;;;;;;5072850;28;20490;-76
2022/07/05 13:50:52;;;;;;;2.20;2.00;;;;;;;;;;5072529;28;20444;-78
2022/07/05 13:53:20;;;;;;;3.10;1.43;;;;;;;;;;5072677;28;20492;-76
2022/07/05 13:55:47;;;;;;;1.90;1.37;;;;;;;;;;5073402;28;20440;-75
2022/07/05 13:58:14;;;;;;;5.27;1.30;;;;;;;;;;5073380;28;20441;-75
2022/07/05 14:00:41;;;;;;;6.93;1.63;;;;;;;;;;5073179;28;20444;-76
2022/07/05 14:03:08;;;;;;;1.90;1.00;;;;;;;;;;5074995;28;20592;-75
2022/07/05 14:05:35;;;;;;;1.30;1.30;;;;;;;;;;5073755;28;20468;-76
2022/07/05 14:08:03;;;;;;;1.67;1.33;;;;;;;;;;5073885;28;20455;-75
2022/07/05 14:10:30;;;;;;;1.20;1.10;;;;;;;;;;5052809;28;20446;-74
2022/07/05 14:12:57;;;;;;;2.70;1.40;;;;;;;;;;5052635;28;20461;-75
2022/07/05 14:15:24;;;;;;;4.00;1.83;;;;;;;;;;5052802;28;20499;-74
2022/07/05 14:17:51;;;;;;;1.43;1.20;;;;;;;;;;5052598;28;20449;-75
2022/07/05 14:20:18;;;;;;;1.60;1.50;;;;;;;;;;5052217;28;20940;-75
2022/07/05 14:22:45;;;;;;;1.67;1.33;;;;;;;;;;5052458;28;20462;-76
2022/07/05 14:25:14;;;;;;;1.50;1.40;;;;;;;;;;5052438;28;20473;-75
2022/07/05 14:27:42;;;;;;;3.80;1.40;;;;;;;;;;5052617;28;20873;-76
2022/07/05 14:30:10;;;;;;;2.50;1.73;;;;;;;;;;5052119;28;20450;-77
2022/07/05 14:32:37;;;;;;;1.67;1.23;;;;;;;;;;5051924;28;20549;-75
2022/07/05 14:35:04;;;;;;;1.43;1.30;;;;;;;;;;5052993;28;20442;-75
2022/07/05 14:37:31;;;;;;;2.77;1.10;;;;;;;;;;5052775;28;20465;-75
2022/07/05 14:39:59;;;;;;;1.50;1.20;;;;;;;;;;5058674;28;20444;-75
2022/07/05 14:42:27;;;;;;;1.93;1.30;;;;;;;;;;5068743;28;20457;-76
2022/07/05 14:44:54;;;;;;;1.43;1.33;;;;;;;;;;5061306;28;20544;-75
2022/07/05 14:47:21;;;;;;;1.57;1.47;;;;;;;;;;5052211;28;20441;-75
2022/07/05 14:49:48;;;;;;;3.07;1.43;;;;;;;;;;5051943;28;20499;-74
2022/07/05 14:52:15;;;;;;;3.20;1.30;;;;;;;;;;5052009;28;20874;-75
2022/07/05 14:54:43;;;;;;;1.47;1.10;;;;;;;;;;5051974;28;20450;-76
2022/07/05 14:57:10;;;;;;;1.60;1.50;;;;;;;;;;5051711;28;20507;-74
2022/07/05 14:59:38;;;;;;;2.87;1.33;;;;;;;;;;5051684;28;20874;-75